Time;durP1;ratioP1;P1;durP2;ratioP2;P2;SDS_P1;SDS_P2;PMS_P1;PMS_P2;Temp;Humidity;BMP_temperature;BMP_pressure;BME280_temperature;BME280_humidity;BME280_pressure;Samples;Min_cycle;Max_cycle;Signal;HPM_P1;HPM_P2
2023/11/13 00:02:25;;;;;;;0.00;0.00;;;8.00;99.90;;;;;;5067704;28;20185;-79
2023/11/13 00:04:51;;;;;;;0.10;0.10;;;8.10;99.90;;;;;;5065680;28;20913;-79
2023/11/13 00:07:16;;;;;;;0.10;0.10;;;8.10;99.90;;;;;;5066781;28;20275;-79
2023/11/13 00:09:42;;;;;;;0.10;0.10;;;8.10;99.90;;;;;;5068960;28;20282;-79
2023/11/13 00:12:08;;;;;;;0.10;0.10;;;8.00;99.90;;;;;;5064746;28;20195;-79
2023/11/13 00:14:40;;;;;;;0.10;0.10;;;8.00;99.90;;;;;;5075442;27;21167;-77
2023/11/13 00:17:06;;;;;;;0.10;0.10;;;8.10;99.90;;;;;;5075482;28;20203;-77
2023/11/13 00:19:32;;;;;;;0.10;0.10;;;8.20;99.90;;;;;;5075239;28;21075;-77
2023/11/13 00:21:57;;;;;;;0.10;0.10;;;8.30;99.90;;;;;;5076635;28;20791;-77
2023/11/13 00:24:23;;;;;;;0.10;0.10;;;8.20;99.90;;;;;;5074979;28;20672;-77
2023/11/13 00:26:48;;;;;;;0.10;0.10;;;8.30;99.90;;;;;;5075043;28;20240;-77
2023/11/13 00:29:15;;;;;;;0.10;0.10;;;8.20;99.90;;;;;;5075074;28;20212;-77
2023/11/13 00:31:41;;;;;;;0.10;0.10;;;8.10;99.90;;;;;;5074886;28;20193;-77
2023/11/13 00:34:07;;;;;;;0.10;0.10;;;8.20;99.90;;;;;;5076355;28;20583;-78
2023/11/13 00:36:32;;;;;;;0.10;0.10;;;8.20;99.90;;;;;;5075198;28;20205;-78
2023/11/13 00:38:58;;;;;;;0.10;0.10;;;8.20;99.90;;;;;;5074689;28;20586;-78
2023/11/13 00:41:23;;;;;;;0.10;0.10;;;8.20;99.90;;;;;;5075222;28;20281;-78
2023/11/13 00:43:49;;;;;;;0.10;0.10;;;8.20;99.90;;;;;;5074148;28;20609;-78
2023/11/13 00:46:14;;;;;;;0.10;0.10;;;8.30;99.90;;;;;;5074483;28;20195;-78
2023/11/13 00:48:40;;;;;;;0.10;0.10;;;8.30;99.90;;;;;;5075805;28;20188;-78
2023/11/13 00:51:06;;;;;;;0.10;0.10;;;8.30;99.90;;;;;;5075848;28;20185;-78
2023/11/13 00:53:36;;;;;;;0.10;0.10;;;8.40;99.90;;;;;;5073967;28;21191;-78
2023/11/13 00:56:06;;;;;;;0.10;0.10;;;8.40;99.90;;;;;;5057671;28;20196;-78
2023/11/13 00:58:34;;;;;;;0.10;0.10;;;8.30;99.90;;;;;;5074070;28;20180;-78
2023/11/13 01:01:01;;;;;;;0.10;0.10;;;8.30;99.90;;;;;;5074166;28;20188;-78
2023/11/13 01:03:27;;;;;;;0.10;0.10;;;8.10;99.90;;;;;;5073964;28;20563;-78
2023/11/13 01:05:52;;;;;;;0.10;0.10;;;8.10;99.90;;;;;;5074436;28;20212;-78
2023/11/13 01:08:18;;;;;;;0.10;0.10;;;8.10;99.90;;;;;;5074266;28;20552;-78
2023/11/13 01:10:44;;;;;;;0.10;0.10;;;8.10;99.90;;;;;;5074814;28;20196;-78
2023/11/13 01:13:09;;;;;;;0.10;0.10;;;8.10;99.90;;;;;;5072395;28;20321;-78
2023/11/13 01:15:35;;;;;;;0.10;0.10;;;8.20;99.90;;;;;;5073433;28;20204;-78
2023/11/13 01:18:01;;;;;;;0.10;0.10;;;8.20;99.90;;;;;;5075557;28;20188;-78
2023/11/13 01:20:27;;;;;;;0.10;0.10;;;8.20;99.90;;;;;;5074787;28;20259;-78
2023/11/13 01:22:53;;;;;;;0.10;0.10;;;8.20;99.90;;;;;;5074811;28;20192;-78
2023/11/13 01:25:18;;;;;;;0.10;0.10;;;8.20;99.90;;;;;;5063712;28;20218;-78
2023/11/13 01:27:44;;;;;;;0.10;0.10;;;8.10;99.90;;;;;;5060458;28;20676;-78
2023/11/13 01:30:10;;;;;;;0.10;0.10;;;8.00;99.90;;;;;;5063119;28;20192;-78
2023/11/13 01:32:36;;;;;;;0.10;0.10;;;8.10;99.90;;;;;;5061417;28;20278;-78
2023/11/13 01:35:02;;;;;;;0.10;0.10;;;7.90;99.90;;;;;;5060524;28;20680;-78
2023/11/13 01:37:28;;;;;;;0.03;0.03;;;8.00;99.90;;;;;;5063500;28;20201;-78
2023/11/13 01:39:54;;;;;;;0.10;0.10;;;7.90;99.90;;;;;;5061052;28;20189;-78
2023/11/13 01:42:20;;;;;;;0.10;0.10;;;8.00;99.90;;;;;;5059190;28;20182;-78
2023/11/13 01:44:45;;;;;;;0.10;0.10;;;8.10;99.90;;;;;;5059488;28;20564;-78
2023/11/13 01:47:11;;;;;;;0.10;0.10;;;8.10;99.90;;;;;;5059983;28;20599;-78
2023/11/13 01:49:37;;;;;;;0.10;0.10;;;8.20;99.90;;;;;;5061492;28;20196;-78
2023/11/13 01:52:04;;;;;;;0.10;0.10;;;8.20;99.90;;;;;;5059514;28;20316;-78
2023/11/13 01:54:30;;;;;;;0.10;0.10;;;8.20;99.90;;;;;;5061242;28;20207;-78
2023/11/13 01:56:56;;;;;;;0.10;0.10;;;8.20;99.90;;;;;;5060566;28;20212;-78
2023/11/13 01:59:23;;;;;;;0.10;0.10;;;8.10;99.90;;;;;;5058892;28;20213;-78
2023/11/13 02:01:49;;;;;;;0.10;0.10;;;8.10;99.90;;;;;;5061129;28;20258;-78
2023/11/13 02:04:15;;;;;;;0.10;0.10;;;8.20;99.90;;;;;;5060578;28;20184;-78
2023/11/13 02:06:41;;;;;;;0.10;0.10;;;8.20;99.90;;;;;;5059628;28;20204;-78
2023/11/13 02:09:10;;;;;;;0.10;0.10;;;8.20;99.90;;;;;;5058891;28;20196;-78
2023/11/13 02:11:37;;;;;;;0.10;0.10;;;8.20;99.90;;;;;;5059965;28;20196;-78
2023/11/13 02:14:03;;;;;;;0.10;0.10;;;8.10;99.90;;;;;;5058379;28;20230;-78
2023/11/13 02:16:28;;;;;;;0.10;0.10;;;8.10;99.90;;;;;;5060770;28;20204;-78
2023/11/13 02:18:54;;;;;;;0.10;0.10;;;7.90;99.90;;;;;;5058592;28;20184;-78
2023/11/13 02:21:20;;;;;;;0.10;0.10;;;7.80;99.90;;;;;;5060706;28;20218;-78
2023/11/13 02:23:45;;;;;;;0.10;0.10;;;7.90;99.90;;;;;;5058008;28;20731;-78
2023/11/13 02:26:15;;;;;;;0.10;0.10;;;7.90;99.90;;;;;;5058146;28;20201;-78
2023/11/13 02:28:41;;;;;;;0.10;0.10;;;7.60;99.90;;;;;;5059667;28;20193;-78
2023/11/13 02:31:06;;;;;;;0.10;0.10;;;7.80;99.90;;;;;;5061969;28;20603;-78
2023/11/13 02:33:32;;;;;;;0.10;0.10;;;7.60;99.90;;;;;;5058544;28;20618;-78
2023/11/13 02:35:57;;;;;;;0.10;0.10;;;7.40;99.90;;;;;;5058087;28;20842;-78
2023/11/13 02:38:23;;;;;;;0.10;0.10;;;7.30;99.90;;;;;;5059676;28;20180;-78
2023/11/13 02:40:48;;;;;;;0.10;0.10;;;7.40;99.90;;;;;;5058675;28;20189;-78
2023/11/13 02:43:14;;;;;;;0.10;0.10;;;7.50;99.90;;;;;;5062165;28;20866;-78
2023/11/13 02:45:40;;;;;;;0.10;0.10;;;7.50;99.90;;;;;;5057608;28;20219;-78
2023/11/13 02:48:06;;;;;;;0.10;0.10;;;7.40;99.90;;;;;;5059118;28;20223;-78
2023/11/13 02:50:31;;;;;;;0.10;0.10;;;7.40;99.90;;;;;;5058792;28;20618;-78
2023/11/13 02:52:58;;;;;;;0.10;0.10;;;7.60;99.90;;;;;;5058529;28;20254;-78
2023/11/13 02:55:24;;;;;;;0.10;0.10;;;7.70;99.90;;;;;;5059896;28;20223;-78
2023/11/13 02:57:52;;;;;;;0.10;0.10;;;7.60;99.90;;;;;;5061464;28;20188;-78
2023/11/13 03:00:19;;;;;;;0.10;0.10;;;7.60;99.90;;;;;;5058031;28;20184;-78
2023/11/13 03:02:45;;;;;;;0.10;0.10;;;7.60;99.90;;;;;;5059550;28;20201;-78
2023/11/13 03:05:11;;;;;;;0.10;0.10;;;7.70;99.90;;;;;;5059188;28;20217;-78
2023/11/13 03:07:36;;;;;;;0.10;0.10;;;7.70;99.90;;;;;;5058311;28;20233;-78
2023/11/13 03:10:03;;;;;;;0.10;0.10;;;7.60;99.90;;;;;;5057762;28;20188;-78
2023/11/13 03:12:28;;;;;;;0.10;0.10;;;7.50;99.90;;;;;;5058269;28;20192;-78
2023/11/13 03:14:54;;;;;;;0.00;0.00;;;7.50;99.90;;;;;;5059487;28;20189;-78
2023/11/13 03:17:20;;;;;;;0.00;0.00;;;7.40;99.90;;;;;;5057829;28;20171;-78
2023/11/13 03:19:45;;;;;;;0.10;0.10;;;7.20;99.90;;;;;;5058825;28;20231;-78
2023/11/13 03:22:11;;;;;;;0.10;0.10;;;7.40;99.90;;;;;;5059489;28;20664;-78
2023/11/13 03:24:37;;;;;;;0.10;0.10;;;7.20;99.90;;;;;;5057972;28;20678;-78
2023/11/13 03:27:02;;;;;;;0.10;0.10;;;7.20;99.90;;;;;;5058242;28;20227;-78
2023/11/13 03:29:28;;;;;;;0.10;0.10;;;7.20;99.90;;;;;;5057806;28;20196;-78
2023/11/13 03:31:54;;;;;;;0.10;0.10;;;7.30;99.90;;;;;;5058553;28;20561;-78
2023/11/13 03:34:20;;;;;;;0.10;0.10;;;7.20;99.90;;;;;;5060283;28;20200;-78
2023/11/13 03:36:46;;;;;;;0.10;0.10;;;7.20;99.90;;;;;;5058008;28;20310;-78
2023/11/13 03:39:12;;;;;;;0.10;0.10;;;7.20;99.90;;;;;;5057647;28;20186;-78
2023/11/13 03:41:38;;;;;;;0.10;0.10;;;7.40;99.90;;;;;;5057992;28;20220;-78
2023/11/13 03:44:04;;;;;;;0.10;0.10;;;7.60;99.90;;;;;;5058047;28;20243;-78
2023/11/13 03:46:30;;;;;;;0.00;0.00;;;7.70;99.90;;;;;;5059730;28;20298;-78
2023/11/13 03:48:55;;;;;;;0.10;0.10;;;7.40;99.90;;;;;;5058337;28;20269;-78
2023/11/13 03:51:25;;;;;;;0.10;0.10;;;7.50;99.90;;;;;;5058810;28;20267;-78
2023/11/13 03:53:51;;;;;;;0.10;0.10;;;7.40;99.90;;;;;;5057128;28;20231;-78
2023/11/13 03:56:20;;;;;;;0.10;0.10;;;7.50;99.90;;;;;;5057711;28;20210;-78
2023/11/13 03:58:46;;;;;;;0.10;0.10;;;7.40;99.90;;;;;;5060049;28;20212;-78
2023/11/13 04:01:12;;;;;;;0.10;0.10;;;7.50;99.90;;;;;;5058855;28;20300;-78
2023/11/13 04:03:38;;;;;;;0.10;0.10;;;7.60;99.90;;;;;;5056309;28;20627;-78
2023/11/13 04:06:04;;;;;;;0.10;0.10;;;7.80;99.90;;;;;;5058390;28;20688;-78
2023/11/13 04:08:29;;;;;;;0.10;0.10;;;7.60;99.90;;;;;;5057302;28;20188;-78
2023/11/13 04:10:55;;;;;;;0.10;0.10;;;7.80;99.90;;;;;;5055897;28;20181;-78
2023/11/13 04:13:22;;;;;;;0.10;0.10;;;7.50;99.90;;;;;;5055720;28;20691;-78
2023/11/13 04:15:48;;;;;;;0.00;0.00;;;7.20;99.90;;;;;;5057535;28;20198;-79
2023/11/13 04:18:14;;;;;;;0.10;0.10;;;7.30;99.90;;;;;;5058851;28;20231;-78
2023/11/13 04:20:40;;;;;;;0.10;0.10;;;7.20;99.90;;;;;;5056282;28;20193;-78
2023/11/13 04:23:05;;;;;;;0.10;0.10;;;7.20;99.90;;;;;;5055394;28;20180;-78
2023/11/13 04:25:31;;;;;;;0.10;0.10;;;7.10;99.90;;;;;;5056087;28;20267;-78
2023/11/13 04:27:57;;;;;;;0.10;0.10;;;7.20;99.90;;;;;;5057358;28;20611;-78
2023/11/13 04:30:23;;;;;;;0.10;0.10;;;7.20;99.90;;;;;;5053963;28;20186;-78
2023/11/13 04:32:48;;;;;;;0.10;0.10;;;7.40;99.90;;;;;;5058871;28;20253;-78
2023/11/13 04:35:14;;;;;;;0.10;0.10;;;7.50;99.90;;;;;;5057971;28;20204;-78
2023/11/13 04:37:39;;;;;;;0.10;0.10;;;7.60;99.90;;;;;;5055886;28;20690;-78
2023/11/13 04:40:05;;;;;;;0.00;0.00;;;7.70;99.90;;;;;;5056432;28;20195;-78
2023/11/13 04:42:32;;;;;;;0.10;0.10;;;7.90;99.90;;;;;;5057555;28;20190;-78
2023/11/13 04:44:57;;;;;;;0.10;0.10;;;7.90;99.90;;;;;;5059305;28;20185;-78
2023/11/13 04:47:23;;;;;;;0.10;0.10;;;8.00;99.90;;;;;;5057093;28;20540;-78
2023/11/13 04:49:49;;;;;;;0.10;0.10;;;7.90;99.90;;;;;;5056451;28;20219;-78
2023/11/13 04:52:15;;;;;;;0.10;0.10;;;8.00;99.90;;;;;;5056277;28;20661;-78
2023/11/13 04:54:40;;;;;;;0.10;0.10;;;8.10;99.90;;;;;;5054455;28;20212;-78
2023/11/13 04:57:06;;;;;;;0.10;0.10;;;8.20;99.90;;;;;;5055723;28;20215;-78
2023/11/13 04:59:32;;;;;;;0.00;0.00;;;8.30;99.90;;;;;;5059068;28;20177;-78
2023/11/13 05:01:57;;;;;;;0.10;0.10;;;8.30;99.90;;;;;;5059812;28;20185;-78
2023/11/13 05:04:24;;;;;;;0.10;0.10;;;8.20;99.90;;;;;;5062345;28;20675;-78
2023/11/13 05:06:50;;;;;;;0.10;0.10;;;8.20;99.90;;;;;;5059994;28;20220;-78
2023/11/13 05:09:15;;;;;;;0.10;0.10;;;8.30;99.90;;;;;;5059514;28;20546;-78
2023/11/13 05:11:41;;;;;;;0.10;0.10;;;8.20;99.90;;;;;;5058614;28;20185;-78
2023/11/13 05:14:06;;;;;;;0.10;0.10;;;8.30;99.90;;;;;;5060680;28;20708;-78
2023/11/13 05:16:32;;;;;;;0.10;0.10;;;8.30;99.90;;;;;;5059863;28;20220;-78
2023/11/13 05:18:58;;;;;;;0.10;0.10;;;8.10;99.90;;;;;;5059283;28;20181;-78
2023/11/13 05:21:24;;;;;;;0.10;0.10;;;8.00;99.90;;;;;;5058391;28;20188;-78
2023/11/13 05:23:49;;;;;;;0.10;0.10;;;8.10;99.90;;;;;;5060716;28;20566;-79
2023/11/13 05:26:19;;;;;;;0.10;0.10;;;8.20;99.90;;;;;;5061109;28;20719;-79
2023/11/13 05:28:44;;;;;;;0.10;0.10;;;8.30;99.90;;;;;;5061351;28;20181;-79
2023/11/13 05:31:10;;;;;;;0.10;0.10;;;7.90;99.90;;;;;;5063698;28;20191;-79
2023/11/13 05:33:36;;;;;;;0.10;0.10;;;7.70;99.90;;;;;;5063281;28;20618;-79
2023/11/13 05:36:02;;;;;;;0.10;0.10;;;7.60;99.90;;;;;;5059901;28;20197;-79
2023/11/13 05:38:28;;;;;;;0.10;0.10;;;7.50;99.90;;;;;;5061896;28;20541;-78
2023/11/13 05:40:53;;;;;;;0.10;0.10;;;7.50;99.90;;;;;;5061654;28;20170;-79
2023/11/13 05:43:19;;;;;;;0.10;0.10;;;7.50;99.90;;;;;;5063028;28;20226;-79
2023/11/13 05:45:45;;;;;;;0.10;0.10;;;7.60;99.90;;;;;;5060423;28;20234;-78
2023/11/13 05:48:10;;;;;;;0.00;0.00;;;7.60;99.90;;;;;;5061131;28;20181;-78
2023/11/13 05:50:36;;;;;;;0.00;0.00;;;7.80;99.90;;;;;;5058472;28;20188;-79
2023/11/13 05:53:03;;;;;;;0.10;0.10;;;7.90;99.90;;;;;;5060185;28;20200;-79
2023/11/13 05:55:29;;;;;;;0.10;0.10;;;7.90;99.90;;;;;;5061351;28;20205;-79
2023/11/13 05:57:54;;;;;;;0.10;0.10;;;7.60;99.90;;;;;;5060561;28;20667;-79
2023/11/13 06:00:21;;;;;;;0.10;0.10;;;7.50;99.90;;;;;;5061977;28;20209;-78
2023/11/13 06:02:47;;;;;;;0.10;0.10;;;7.60;99.90;;;;;;5060791;28;20614;-79
2023/11/13 06:05:13;;;;;;;0.10;0.10;;;7.80;99.90;;;;;;5060394;28;20703;-79
2023/11/13 06:07:39;;;;;;;0.10;0.10;;;8.00;99.90;;;;;;5057630;28;20272;-79
2023/11/13 06:10:07;;;;;;;0.10;0.10;;;8.10;99.90;;;;;;5059837;28;20264;-79
2023/11/13 06:12:33;;;;;;;0.10;0.10;;;8.20;99.90;;;;;;5060637;28;20594;-79
2023/11/13 06:14:59;;;;;;;0.10;0.10;;;8.20;99.90;;;;;;5060131;28;20182;-79
2023/11/13 06:17:25;;;;;;;0.00;0.00;;;8.30;99.90;;;;;;5060077;28;20540;-80
2023/11/13 06:19:51;;;;;;;0.00;0.00;;;8.40;99.90;;;;;;5057100;28;20182;-79
2023/11/13 06:22:17;;;;;;;0.10;0.10;;;8.10;99.90;;;;;;5061603;28;20177;-78
2023/11/13 06:24:43;;;;;;;0.10;0.10;;;8.20;99.90;;;;;;5062337;28;20668;-78
2023/11/13 06:27:09;;;;;;;0.10;0.10;;;8.30;99.90;;;;;;5059677;28;20202;-78
2023/11/13 06:29:35;;;;;;;0.07;0.07;;;8.40;99.90;;;;;;5057774;28;20571;-78
2023/11/13 06:32:01;;;;;;;0.10;0.10;;;8.40;99.90;;;;;;5059064;28;20273;-78
2023/11/13 06:34:28;;;;;;;0.00;0.00;;;8.50;99.90;;;;;;5059466;28;20710;-78
2023/11/13 06:36:53;;;;;;;0.10;0.10;;;8.50;99.90;;;;;;5060078;28;20227;-78
2023/11/13 06:39:19;;;;;;;0.00;0.00;;;8.50;99.90;;;;;;5058254;28;20268;-79
2023/11/13 06:41:45;;;;;;;0.10;0.10;;;8.50;99.90;;;;;;5059474;28;20738;-78
2023/11/13 06:44:11;;;;;;;0.00;0.00;;;8.40;99.90;;;;;;5056419;28;20193;-79
2023/11/13 06:46:37;;;;;;;0.10;0.10;;;8.50;99.90;;;;;;5058334;28;20209;-79
2023/11/13 06:49:03;;;;;;;0.10;0.10;;;8.40;99.90;;;;;;5056657;28;20223;-79
2023/11/13 06:51:29;;;;;;;0.10;0.10;;;8.20;99.90;;;;;;5056695;28;20265;-79
2023/11/13 06:53:55;;;;;;;0.00;0.00;;;8.20;99.90;;;;;;5058071;28;20225;-79
2023/11/13 06:56:22;;;;;;;0.10;0.10;;;8.30;99.90;;;;;;5054263;28;20205;-80
2023/11/13 06:58:49;;;;;;;0.10;0.10;;;8.40;99.90;;;;;;5063795;28;20180;-79
2023/11/13 07:01:15;;;;;;;0.00;0.00;;;8.60;99.90;;;;;;5068324;28;20270;-80
2023/11/13 07:03:41;;;;;;;0.10;0.10;;;8.30;99.90;;;;;;5066925;28;20217;-79
2023/11/13 07:06:10;;;;;;;0.00;0.00;;;8.50;99.90;;;;;;5058976;28;20579;-80
2023/11/13 07:08:40;;;;;;;0.10;0.10;;;8.50;99.90;;;;;;5060381;28;20186;-79
2023/11/13 07:11:06;;;;;;;0.10;0.10;;;8.60;99.90;;;;;;5055711;28;20182;-78
2023/11/13 07:13:32;;;;;;;0.10;0.10;;;8.50;99.90;;;;;;5044644;28;20335;-78
2023/11/13 07:15:58;;;;;;;0.10;0.10;;;8.60;99.90;;;;;;5055992;28;20288;-78
2023/11/13 07:18:23;;;;;;;0.10;0.10;;;8.70;99.90;;;;;;5054665;28;20228;-79
2023/11/13 07:20:50;;;;;;;0.10;0.10;;;8.70;99.90;;;;;;5057223;28;21144;-79
2023/11/13 07:23:19;;;;;;;0.10;0.10;;;8.40;99.90;;;;;;5052938;28;20177;-80
2023/11/13 07:25:45;;;;;;;0.10;0.10;;;8.30;99.90;;;;;;5055416;28;20274;-79
2023/11/13 07:28:12;;;;;;;0.10;0.10;;;8.40;99.90;;;;;;5056128;28;20272;-79
2023/11/13 07:30:38;;;;;;;0.10;0.10;;;8.50;99.90;;;;;;5060289;28;20251;-79
2023/11/13 07:33:03;;;;;;;0.03;0.03;;;8.70;99.90;;;;;;5055206;28;20201;-79
2023/11/13 07:35:30;;;;;;;0.10;0.10;;;8.80;99.90;;;;;;5055824;28;20213;-79
2023/11/13 07:37:56;;;;;;;0.10;0.10;;;8.80;99.90;;;;;;5056957;28;20179;-79
2023/11/13 07:40:21;;;;;;;0.10;0.10;;;8.80;99.90;;;;;;5054472;28;20247;-79
2023/11/13 07:42:48;;;;;;;0.10;0.10;;;8.90;99.90;;;;;;5052324;28;20181;-79
2023/11/13 07:45:14;;;;;;;0.10;0.10;;;8.90;99.90;;;;;;5053944;28;20590;-79
2023/11/13 07:47:40;;;;;;;0.10;0.10;;;8.90;99.90;;;;;;5054904;28;20303;-79
2023/11/13 07:50:13;;;;;;;0.10;0.10;;;9.00;99.90;;;;;;5053994;28;20185;-79
2023/11/13 07:52:43;;;;;;;0.10;0.10;;;9.00;99.90;;;;;;5054922;28;20189;-79
2023/11/13 07:55:12;;;;;;;0.10;0.10;;;8.80;99.90;;;;;;5053655;28;20192;-79
2023/11/13 07:57:38;;;;;;;0.10;0.10;;;8.70;99.90;;;;;;5053859;28;20276;-79
2023/11/13 08:00:05;;;;;;;0.10;0.10;;;8.80;99.90;;;;;;5053279;28;20192;-78
2023/11/13 08:02:30;;;;;;;0.10;0.10;;;8.80;99.90;;;;;;5053996;28;20188;-80
2023/11/13 08:04:56;;;;;;;0.10;0.10;;;8.80;99.90;;;;;;5051775;28;20242;-78
2023/11/13 08:07:21;;;;;;;0.10;0.10;;;8.80;99.90;;;;;;5051133;28;20184;-79
2023/11/13 08:09:47;;;;;;;0.10;0.10;;;8.90;99.90;;;;;;5054735;28;20217;-79
2023/11/13 08:12:13;;;;;;;0.10;0.10;;;8.90;99.90;;;;;;5054443;28;20196;-79
2023/11/13 08:14:38;;;;;;;0.03;0.03;;;8.80;99.90;;;;;;5055385;28;20219;-78
2023/11/13 08:17:04;;;;;;;0.10;0.10;;;8.50;99.90;;;;;;5056683;28;20267;-78
2023/11/13 08:19:30;;;;;;;0.10;0.10;;;8.30;99.90;;;;;;5054207;28;20319;-78
2023/11/13 08:21:56;;;;;;;0.10;0.10;;;8.20;99.90;;;;;;5051807;28;20196;-79
2023/11/13 08:24:22;;;;;;;0.10;0.10;;;8.10;99.90;;;;;;5049882;28;20208;-79
2023/11/13 08:26:49;;;;;;;0.10;0.10;;;7.90;99.90;;;;;;5057994;28;20204;-79
2023/11/13 08:29:15;;;;;;;0.10;0.10;;;7.90;99.90;;;;;;5053047;28;20770;-79
2023/11/13 08:31:42;;;;;;;0.10;0.10;;;7.90;99.90;;;;;;5052296;28;20186;-78
2023/11/13 08:34:07;;;;;;;0.10;0.10;;;8.10;99.90;;;;;;5052279;28;20201;-80
2023/11/13 08:36:33;;;;;;;0.10;0.10;;;8.10;99.90;;;;;;5061389;28;20211;-80
2023/11/13 08:39:00;;;;;;;0.10;0.10;;;8.20;99.90;;;;;;5058654;28;20181;-80
2023/11/13 08:41:28;;;;;;;0.10;0.10;;;8.10;99.90;;;;;;5062104;28;20188;-79
2023/11/13 08:43:56;;;;;;;0.10;0.10;;;8.00;99.90;;;;;;5061494;28;20193;-80
2023/11/13 08:46:24;;;;;;;0.10;0.10;;;8.20;99.90;;;;;;5059379;28;20219;-80
2023/11/13 08:48:50;;;;;;;0.10;0.10;;;8.30;99.90;;;;;;5059746;28;20181;-79
2023/11/13 08:51:16;;;;;;;0.10;0.10;;;8.50;99.90;;;;;;5059910;28;20185;-80
2023/11/13 08:53:42;;;;;;;0.10;0.10;;;8.40;99.90;;;;;;5059421;28;20221;-80
2023/11/13 08:56:15;;;;;;;0.10;0.10;;;8.10;99.90;;;;;;5059960;28;20206;-80
2023/11/13 08:58:42;;;;;;;0.10;0.10;;;8.30;99.90;;;;;;5060850;28;20212;-80
2023/11/13 09:01:07;;;;;;;0.10;0.10;;;8.50;99.90;;;;;;5060372;28;20187;-80
2023/11/13 09:03:34;;;;;;;0.10;0.10;;;8.60;99.90;;;;;;5060788;28;20194;-80
2023/11/13 09:06:04;;;;;;;0.10;0.10;;;8.50;99.90;;;;;;5060136;28;20206;-80
2023/11/13 09:08:31;;;;;;;0.10;0.10;;;8.50;99.90;;;;;;5061691;28;20187;-79
2023/11/13 09:10:56;;;;;;;0.10;0.10;;;8.60;99.90;;;;;;5057873;28;20199;-80
2023/11/13 09:13:24;;;;;;;0.10;0.10;;;8.80;99.90;;;;;;5060840;28;20206;-80
2023/11/13 09:15:49;;;;;;;0.10;0.10;;;8.70;99.90;;;;;;5058073;28;20198;-79
2023/11/13 09:18:15;;;;;;;0.10;0.10;;;8.50;99.90;;;;;;5057513;28;20187;-80
2023/11/13 09:20:42;;;;;;;0.03;0.03;;;8.60;99.90;;;;;;5058830;28;20210;-84
2023/11/13 09:23:09;;;;;;;0.10;0.10;;;8.70;99.90;;;;;;5059219;28;20194;-80
2023/11/13 09:25:34;;;;;;;0.10;0.10;;;8.50;99.90;;;;;;5057739;28;20209;-79
2023/11/13 09:28:00;;;;;;;0.10;0.10;;;8.50;99.90;;;;;;5057335;28;20192;-80
2023/11/13 09:30:26;;;;;;;0.10;0.10;;;8.60;99.90;;;;;;5055518;28;20195;-79
2023/11/13 09:32:52;;;;;;;0.10;0.10;;;8.70;99.90;;;;;;5061067;28;20199;-80
2023/11/13 09:35:22;;;;;;;0.10;0.10;;;8.70;99.90;;;;;;5044132;28;20250;-79
2023/11/13 09:37:55;;;;;;;0.10;0.10;;;8.90;99.90;;;;;;5059200;28;20177;-79
2023/11/13 09:40:24;;;;;;;0.10;0.10;;;9.00;99.90;;;;;;5057595;28;20184;-79
2023/11/13 09:43:03;;;;;;;0.10;0.10;;;8.90;99.90;;;;;;5059829;28;20178;-79
2023/11/13 09:45:29;;;;;;;0.10;0.10;;;8.60;99.90;;;;;;5056918;28;20194;-79
2023/11/13 09:48:00;;;;;;;0.10;0.10;;;8.30;99.90;;;;;;5058657;28;20215;-79
2023/11/13 09:50:27;;;;;;;0.10;0.10;;;8.30;99.90;;;;;;5059706;28;20737;-79
2023/11/13 09:52:59;;;;;;;0.10;0.10;;;8.40;99.90;;;;;;5058916;28;20190;-79
2023/11/13 09:55:26;;;;;;;0.10;0.10;;;8.20;99.90;;;;;;5057572;28;20194;-79
2023/11/13 09:57:52;;;;;;;0.10;0.10;;;8.30;99.90;;;;;;5059212;28;20195;-79
2023/11/13 10:00:23;;;;;;;0.10;0.10;;;8.20;99.90;;;;;;5055587;28;20177;-79
2023/11/13 10:02:52;;;;;;;0.10;0.10;;;8.30;99.90;;;;;;5057521;28;20187;-79
2023/11/13 10:05:19;;;;;;;0.10;0.10;;;8.30;99.90;;;;;;5057423;28;20738;-79
2023/11/13 10:07:52;;;;;;;0.10;0.10;;;8.30;99.90;;;;;;5057112;28;20200;-79
2023/11/13 10:10:22;;;;;;;0.10;0.10;;;8.30;99.90;;;;;;5060086;28;20212;-79
2023/11/13 10:12:48;;;;;;;0.00;0.00;;;8.30;99.90;;;;;;5060311;28;20204;-80
2023/11/13 10:15:14;;;;;;;0.03;0.03;;;8.20;99.90;;;;;;5058228;28;20216;-79
2023/11/13 10:17:49;;;;;;;0.10;0.10;;;8.20;99.90;;;;;;5057212;28;20186;-80
2023/11/13 10:20:19;;;;;;;0.10;0.10;;;8.10;99.90;;;;;;5059750;28;20548;-79
2023/11/13 10:23:01;;;;;;;0.10;0.10;;;8.10;99.90;;;;;;5056041;28;20179;-79
2023/11/13 10:25:45;;;;;;;0.10;0.10;;;8.30;99.90;;;;;;5057397;28;20225;-79
2023/11/13 10:28:17;;;;;;;0.10;0.10;;;8.30;99.90;;;;;;5058154;28;20183;-79
2023/11/13 10:30:53;;;;;;;0.10;0.10;;;8.50;99.90;;;;;;5059586;28;20254;-79
2023/11/13 10:33:19;;;;;;;0.10;0.10;;;8.40;99.90;;;;;;5058141;28;20254;-78
2023/11/13 10:35:48;;;;;;;0.10;0.10;;;8.50;99.90;;;;;;5059991;28;20286;-78
2023/11/13 10:38:14;;;;;;;0.10;0.10;;;8.40;99.90;;;;;;5056040;28;20192;-79
2023/11/13 10:41:00;;;;;;;0.10;0.10;;;8.40;99.90;;;;;;5054154;28;20192;-78
2023/11/13 10:43:31;;;;;;;0.10;0.10;;;8.30;99.90;;;;;;5055191;28;20200;-79
2023/11/13 10:45:59;;;;;;;0.10;0.10;;;8.30;99.90;;;;;;5056154;28;20207;-79
2023/11/13 10:48:42;;;;;;;0.10;0.10;;;8.40;99.90;;;;;;5056241;28;20332;-79
2023/11/13 10:51:09;;;;;;;0.10;0.10;;;8.50;99.90;;;;;;5058755;28;20250;-79
2023/11/13 10:53:39;;;;;;;0.10;0.10;;;8.40;99.90;;;;;;5057629;28;20209;-79
2023/11/13 10:56:05;;;;;;;0.10;0.10;;;8.40;99.90;;;;;;5056215;28;20236;-78
2023/11/13 10:58:32;;;;;;;0.10;0.10;;;8.50;99.90;;;;;;5057038;28;20655;-79
2023/11/13 11:01:00;;;;;;;0.10;0.10;;;8.50;99.90;;;;;;5058147;28;20649;-79
2023/11/13 11:03:30;;;;;;;0.10;0.10;;;8.50;99.90;;;;;;5060471;28;20194;-79
2023/11/13 11:06:06;;;;;;;0.10;0.10;;;8.50;99.90;;;;;;5059778;28;20219;-79
2023/11/13 11:08:32;;;;;;;0.10;0.10;;;8.50;99.90;;;;;;5054855;28;20188;-78
2023/11/13 11:10:59;;;;;;;0.10;0.10;;;8.50;99.90;;;;;;5060080;28;20681;-79
2023/11/13 11:13:25;;;;;;;0.10;0.10;;;8.70;99.90;;;;;;5057646;28;20216;-79
2023/11/13 11:16:06;;;;;;;0.10;0.10;;;9.00;99.90;;;;;;5058470;28;20759;-79
2023/11/13 11:18:43;;;;;;;0.10;0.10;;;9.10;99.90;;;;;;5058133;28;20188;-79
2023/11/13 11:21:08;;;;;;;0.10;0.10;;;9.00;99.90;;;;;;5061449;28;20173;-79
2023/11/13 11:23:43;;;;;;;0.10;0.10;;;9.00;99.90;;;;;;5058098;28;20192;-79
2023/11/13 11:26:08;;;;;;;0.10;0.10;;;8.90;99.90;;;;;;5059940;28;20200;-79
2023/11/13 11:28:48;;;;;;;0.10;0.10;;;9.00;99.90;;;;;;5057264;28;20187;-79
2023/11/13 11:31:38;;;;;;;0.10;0.10;;;9.00;99.90;;;;;;5057216;28;20282;-79
2023/11/13 11:34:04;;;;;;;0.10;0.10;;;9.20;99.90;;;;;;5058803;28;20212;-79
2023/11/13 11:36:36;;;;;;;0.10;0.10;;;9.30;99.90;;;;;;5056069;28;20241;-79
2023/11/13 11:39:18;;;;;;;0.10;0.10;;;9.30;99.90;;;;;;5059257;28;20652;-79
2023/11/13 11:41:45;;;;;;;0.10;0.10;;;9.20;99.90;;;;;;5057251;28;20181;-79
2023/11/13 11:44:13;;;;;;;0.10;0.10;;;9.10;99.90;;;;;;5054753;28;20210;-79
2023/11/13 11:46:46;;;;;;;0.10;0.10;;;9.10;99.90;;;;;;5055706;28;20216;-79
2023/11/13 11:49:44;;;;;;;0.10;0.10;;;9.10;99.90;;;;;;5059384;28;20173;-79
2023/11/13 11:52:11;;;;;;;0.10;0.10;;;9.10;99.90;;;;;;5054314;28;20216;-79
2023/11/13 11:54:38;;;;;;;0.10;0.10;;;9.10;99.90;;;;;;5056160;28;20635;-79
2023/11/13 11:57:07;;;;;;;0.10;0.10;;;9.10;99.90;;;;;;5058392;28;20201;-78
2023/11/13 11:59:33;;;;;;;0.10;0.10;;;9.20;99.90;;;;;;5056510;28;20231;-79
2023/11/13 12:02:03;;;;;;;0.10;0.10;;;9.20;99.90;;;;;;5058004;28;20187;-79
2023/11/13 12:04:33;;;;;;;0.10;0.10;;;9.20;99.90;;;;;;5053808;28;20197;-79
2023/11/13 12:07:09;;;;;;;0.10;0.10;;;9.20;99.90;;;;;;5054099;28;20771;-79
2023/11/13 12:09:36;;;;;;;0.10;0.10;;;9.20;99.90;;;;;;5054066;28;20271;-79
2023/11/13 12:12:02;;;;;;;0.10;0.10;;;9.30;99.90;;;;;;5056346;28;20758;-79
2023/11/13 12:14:28;;;;;;;0.10;0.10;;;9.40;99.90;;;;;;5057280;28;20746;-79
2023/11/13 12:16:54;;;;;;;0.10;0.10;;;9.40;99.90;;;;;;5053763;28;20201;-79
2023/11/13 12:19:20;;;;;;;0.00;0.00;;;9.50;99.90;;;;;;5056114;28;20177;-79
2023/11/13 12:21:46;;;;;;;0.10;0.10;;;9.50;99.90;;;;;;5055366;28;20184;-79
2023/11/13 12:24:16;;;;;;;0.10;0.10;;;9.50;99.90;;;;;;5056640;28;20189;-79
2023/11/13 12:26:45;;;;;;;0.10;0.10;;;9.50;99.90;;;;;;5058428;28;20197;-79
2023/11/13 12:29:19;;;;;;;0.10;0.10;;;9.60;99.90;;;;;;5054030;28;20208;-79
2023/11/13 12:31:46;;;;;;;0.10;0.10;;;9.80;99.90;;;;;;5057078;28;20174;-79
2023/11/13 12:34:15;;;;;;;0.03;0.03;;;9.80;99.90;;;;;;5054463;28;20723;-79
2023/11/13 12:36:46;;;;;;;0.10;0.10;;;9.80;99.90;;;;;;5051785;28;21184;-79
2023/11/13 12:39:18;;;;;;;0.10;0.10;;;9.80;99.90;;;;;;5054348;28;20276;-79
2023/11/13 12:41:46;;;;;;;0.10;0.10;;;9.90;99.90;;;;;;5056557;28;20265;-79
2023/11/13 12:44:12;;;;;;;0.10;0.10;;;10.00;99.90;;;;;;5054208;28;20277;-79
2023/11/13 12:46:42;;;;;;;0.10;0.10;;;10.00;99.90;;;;;;5056167;28;20295;-79
2023/11/13 12:49:11;;;;;;;0.10;0.10;;;10.00;99.90;;;;;;5056003;28;20263;-79
2023/11/13 12:51:38;;;;;;;0.10;0.10;;;10.20;99.90;;;;;;5056957;28;20188;-79
2023/11/13 12:54:04;;;;;;;0.10;0.10;;;10.20;99.90;;;;;;5057392;28;20206;-79
2023/11/13 12:56:31;;;;;;;0.10;0.10;;;10.10;99.90;;;;;;5056138;28;20197;-80
2023/11/13 12:58:56;;;;;;;0.10;0.10;;;10.10;99.90;;;;;;5054198;28;20197;-79